Prince Rupert Airport
CYPR : now visible

Airfield :











YOU CAN JOIN US ON...

 
LOGIN :

Register | Disclaimer

   EN    FR    IT 

 









Legend :    VFR   Marginal VFR   IFR   Intensive IFR   Very Intensive IFR
Visi :
Ceiling :
>= 8 km
>= 3000ft
5 to 8 km
1000 to 3000 ft
1500m to 5 km
500 to 1000 ft
800 to 1500m
200 to 500 ft
< 800m
< 200 ft
Symbols :   Thunderstorms  Fog  Heavy snow  Heavy precipitations  Wind > 20 kt






- Airport Elevation : 116 ft
- IATA code : YPR


CYPR - Prince Rupert

CURRENT METAR :
  • 240841Z AUTO 14010KT 120V180 9SM SCT022 BKN031 BKN041 BKN075 05/04 A2952 RMK SLP000

EXPIRED METARs :
  • 240831Z AUTO 16006KT 110V190 6SM -RA BR SCT022 BKN031 BKN041 OVC085 05/04 A2953 RMK SLP001
  • 240818Z AUTO 16008G15KT 5SM -RA BR FEW029 BKN042 OVC060 06/04 A2953 RMK SLP001
  • 240729Z AUTO 14008KT 9SM FEW025 BKN036 BKN050 OVC092 05/04 A2952 RMK SLP999
  • 240700Z AUTO 14007KT 9SM -RA SCT040 BKN050 OVC065 06/04 A2951 RMK SLP997
  • 240655Z AUTO 14008KT 120V180 9SM -RA SCT042 BKN050 OVC065 06/04 A2951 RMK SLP996
  • 240600Z AUTO 13007KT 9SM SCT023 BKN029 OVC055 06/04 A2951 RMK PCPN 0.5MM PAST HR SLP995

TAF TAF CYPR
Valid from the 24 at 07:00 until the 24 at 19:00 UTC


240638Z 2407/2419 13008KT P6SM SCT015 BKN030
TEMPO 2407/2418 3SM -SHRA BR BKN015
BECMG 2407/2409 19010G20KT
FM241800 14012KT P6SM SCT008 BKN012
TEMPO 2418/2419 3SM -RA BR BKN008 RMK FCST BASED ON AUTO OBS. NXT FCST BY 241300Z
CZVR FIR / North America



MET'MAP, your aeronautical weather chart ! - Copyright ORBIFLY December 2007 - Disclaimer

ORBIFLY MET'MAP TEAM :

Programming & Development : Alexandra Zaïnal
Concept & original design : Baudouin d'Aumeries
Assistance for programming : Marc-Olivier Méhu
Technical & hardware support : Manuel Goepfert

Contact : metmap@orbifly.com




SOURCES & CREDITS :

   NOAA       Earth
Advisory